Search for airport 
image banner adimage banner adimage banner ad
image banner ad

4CA3 - Camp Parks

Located in Pleasanton, United States

ICAO - 4CA3, IATA -

Data provided by Airmate  

General information

Coordinates: N37°42'30" W121°53'34"
Elevation is 361 feet MSL.
Magnetic variation is 16° East
View others Airports in California

Operational data

Special qualification required
Current time UTC:
Current local time:
Weather at : KLVK - Livermore Muni ( 7 km )
METAR: KLVK 231453Z 00000KT 10SM CLR 15/08 A2997 RMK AO2 SLP144 T01500078 53009
TAF: KLVK 231135Z 2312/2412 VRB03KT P6SM SKC FM232000 33008KT P6SM SKC FM240400 VRB05KT P6SM SKC
View NOTAMs / SUP AIP / TFR affecting this airport [VIEW]
Communications frequencies: [VIEW]

Runways:

Airport contact information

Address: Pleasanton United States

Satellite view of 4CA3